Cancun, Mexiko

05:52 PM EDT am 28. April 2017 (GMT -0400)
Paseo del mar Residencial Campestre Cancun | | Change Station

Höhe 26 ft 21.10 °N, 86.85 °W | Updated 12 seconds ago

Wolkig
Wolkig
90.7 °F
gefühlte 118 °F
N
9.8
Wind Wechselnd Wind aus Ost-Südost
Gusts 12.3 mph

Heute
Max. -- | schwach -- °F
--% Regenrisiko
Gestern
Max. -- | schwach -- °F
Precip. -- inch
Druck 29.85 inch
Sichtweite 8.0 Meilen
Wolken Wolkig 1500 ft
Hitzeindex 118 °F
Taupunkt 85 °F
Feuchtigkeit 82%
Regen 0.00 inch
Schneehöhe Nicht verfügbar..
7:18 AM 8:11 PM
Erstes Viertel, 9% visible
METAR MMCZ 282048Z 14012KT 8SM BKN015TCU 30/25 A2982 RMK SLP106 57016 920 8/200 SC
Druck 29.85 inch
Sichtweite 8.0 Meilen
Wolken Wolkig 1500 ft
Hitzeindex 118 °F
Taupunkt 85 °F
Feuchtigkeit 82%
Regen 0.00 inch
Schneehöhe Nicht verfügbar..
7:18 AM 8:11 PM
Erstes Viertel, 9% visible
METAR MMCZ 282048Z 14012KT 8SM BKN015TCU 30/25 A2982 RMK SLP106 57016 920 8/200 SC

Get Severe Weather Alerts

Thanks for signing up!

Be on the lookout for a verification email in your inbox.

You'll start receiving the daily forecast at 8 AM.

×

10-Day Weather Forecast

No radar image for this location.
×

Almanac

Astronomie

Apr. 28, 2017 Aufgang Untergang
Genaue Zeit
Bürgerliche Dämmerung
Nautische Dämmerung
Astronomische Dämmerung
Mond
Länge des sichtbaren Lichts
Tageslänge
Tomorrow will be .
, % of the Moon is Illuminated

Heutige Rekorde

Country Highs Country Lows

Community

WunderPhotos

WunderBlog® & News

Nearby

Luftqualität

  Luftqualität LQ Index Schadstoff
Not available.

Schneehöhe

Station Depth Höhe

Erdbebenaktivität

Stadt Distance Mag. Time & Date
Minimum magnitude displayed is 2.5.

küstennahe Wassertemperaturen

Ort Temperatur

Stations

Wetterstationen in der Umgebung

Stationsstandort Temp. Windchill Taupunkt Feuchtigkeit Wind Precip. Höhe Aktualisiert Art